Time;durP1;ratioP1;P1;durP2;ratioP2;P2;SDS_P1;SDS_P2;PMS_P1;PMS_P2;Temp;Humidity;BMP_temperature;BMP_pressure;BME280_temperature;BME280_humidity;BME280_pressure;Samples;Min_cycle;Max_cycle;Signal;HPM_P1;HPM_P2
2022/10/06 00:00:37;;;;;;;9.15;5.10;;;;;;;11.59;80.34;100477.61;1822285;77;21514;-80
2022/10/06 00:03:03;;;;;;;8.78;4.40;;;;;;;11.55;80.46;100479.75;1741533;80;21050;-79
2022/10/06 00:05:31;;;;;;;7.37;4.33;;;;;;;11.56;80.48;100478.73;1737402;81;21008;-80
2022/10/06 00:07:59;;;;;;;4.85;3.62;;;;;;;11.66;80.25;100479.14;1734913;81;21142;-79
2022/10/06 00:10:26;;;;;;;6.97;4.28;;;;;;;11.63;80.09;100479.44;1738412;80;21011;-80
2022/10/06 00:12:53;;;;;;;7.08;3.90;;;;;;;11.59;80.17;100488.25;1742772;81;21001;-77
2022/10/06 00:15:25;;;;;;;7.20;3.87;;;;;;;11.63;80.20;100478.11;1744010;81;21046;-80
2022/10/06 00:17:51;;;;;;;7.50;4.00;;;;;;;11.70;79.85;100492.47;1765581;81;21000;-78
2022/10/06 00:20:18;;;;;;;8.03;4.28;;;;;;;11.68;79.84;100477.15;1732077;81;21605;-81
2022/10/06 00:22:47;;;;;;;9.10;3.60;;;;;;;11.63;79.91;100482.09;1763209;81;21081;-80
2022/10/06 00:25:20;;;;;;;6.47;3.98;;;;;;;11.61;80.08;100476.45;1744247;79;21036;-81
2022/10/06 00:27:49;;;;;;;8.35;3.80;;;;;;;11.68;79.93;100473.98;1741286;79;21022;-79
2022/10/06 00:30:21;;;;;;;4.97;3.62;;;;;;;11.65;79.87;100470.33;1751134;81;20981;-77
2022/10/06 00:32:56;;;;;;;8.40;3.90;;;;;;;11.56;80.14;100481.40;1751039;80;21792;-80
2022/10/06 00:35:24;;;;;;;7.25;3.55;;;;;;;11.50;80.36;100477.22;1754905;81;21042;-82
2022/10/06 00:37:50;;;;;;;7.80;3.45;;;;;;;11.50;80.51;100476.71;1756522;81;21103;-81
2022/10/06 00:40:18;;;;;;;8.98;3.52;;;;;;;11.55;80.41;100483.73;1756314;78;20935;-82
2022/10/06 00:42:53;;;;;;;7.22;3.85;;;;;;;11.51;80.47;100466.89;1729228;83;20988;-81
2022/10/06 00:45:26;;;;;;;6.35;3.72;;;;;;;11.44;80.70;100461.88;1750127;81;21620;-81
2022/10/06 00:47:54;;;;;;;5.53;3.70;;;;;;;11.37;81.14;100461.65;1733063;81;21261;-81
2022/10/06 00:50:21;;;;;;;4.65;3.77;;;;;;;11.41;81.09;100454.55;1751937;80;21022;-80
2022/10/06 00:52:47;;;;;;;6.05;3.60;;;;;;;11.44;80.94;100456.05;1761843;79;21031;-80
2022/10/06 00:55:16;;;;;;;5.00;3.98;;;;;;;11.39;81.07;100457.00;1758835;79;21081;-79
2022/10/06 00:57:42;;;;;;;5.78;3.75;;;;;;;11.35;81.29;100456.48;1732980;82;21203;-80
2022/10/06 01:00:11;;;;;;;6.53;3.40;;;;;;;11.40;81.32;100460.02;1753353;79;21025;-81
2022/10/06 01:02:49;;;;;;;9.08;3.40;;;;;;;11.48;81.01;100456.08;1759077;79;21113;-81
2022/10/06 01:05:21;;;;;;;9.73;3.80;;;;;;;11.47;80.99;100453.06;1762776;79;20996;-79
2022/10/06 01:07:49;;;;;;;7.40;4.05;;;;;;;11.42;81.05;100456.70;1755535;79;21607;-79
2022/10/06 01:10:17;;;;;;;9.10;3.58;;;;;;;11.40;81.18;100457.36;1741834;81;21255;-78
2022/10/06 01:12:43;;;;;;;5.53;3.45;;;;;;;11.47;80.98;100457.05;1748139;81;21072;-78
2022/10/06 01:17:54;;;;;;;6.30;3.40;;;;;;;11.40;81.08;100455.53;1820966;78;21048;-79
2022/10/06 01:20:21;;;;;;;8.95;3.77;;;;;;;11.34;81.21;100453.50;1817985;78;21048;-78
2022/10/06 01:22:57;;;;;;;10.80;4.25;;;;;;;11.40;81.20;100454.20;1821031;77;21528;-79
2022/10/06 01:25:23;;;;;;;5.22;3.80;;;;;;;11.44;81.08;100457.38;1792482;78;21021;-79
2022/10/06 01:27:52;;;;;;;6.20;3.70;;;;;;;11.38;81.09;100448.70;1794931;78;21005;-80
2022/10/06 01:30:27;;;;;;;9.45;3.72;;;;;;;11.33;81.22;100449.15;1767363;80;21014;-78
2022/10/06 01:32:54;;;;;;;6.72;3.65;;;;;;;11.32;81.34;100450.16;1771667;78;21054;-78
2022/10/06 01:35:21;;;;;;;6.53;3.22;;;;;;;11.39;81.17;100455.17;1756014;79;21195;-79
2022/10/06 01:37:47;;;;;;;6.20;3.77;;;;;;;11.36;81.21;100457.34;1746811;80;21070;-81
2022/10/06 01:40:15;;;;;;;4.53;4.05;;;;;;;11.30;81.33;100460.13;1761753;79;21053;-79
2022/10/06 01:42:43;;;;;;;6.80;3.22;;;;;;;11.26;81.47;100449.45;1756078;80;21644;-80
2022/10/06 01:45:09;;;;;;;7.55;3.72;;;;;;;11.30;81.41;100445.48;1771376;80;21062;-80
2022/10/06 01:47:36;;;;;;;9.68;3.75;;;;;;;11.33;81.27;100446.48;1723793;81;21140;-81
2022/10/06 01:50:05;;;;;;;5.47;3.65;;;;;;;11.29;81.35;100455.77;1778893;80;21500;-80
2022/10/06 01:52:32;;;;;;;4.83;3.37;;;;;;;11.24;81.56;100450.58;1754331;81;21398;-82
2022/10/06 01:54:59;;;;;;;7.12;3.30;;;;;;;11.24;81.70;100454.56;1772037;80;21646;-81
2022/10/06 01:57:25;;;;;;;7.40;3.37;;;;;;;11.32;81.53;100455.95;1759390;80;21461;-82
2022/10/06 01:59:52;;;;;;;7.37;3.60;;;;;;;11.32;81.47;100463.93;1760181;80;21145;-81
2022/10/06 02:02:19;;;;;;;7.30;3.70;;;;;;;11.27;81.68;100463.08;1764740;80;21540;-80
2022/10/06 02:04:46;;;;;;;5.00;3.08;;;;;;;11.21;81.73;100462.38;1769495;80;21313;-82
2022/10/06 02:07:13;;;;;;;5.47;3.65;;;;;;;11.23;81.82;100455.58;1760936;80;21045;-81
2022/10/06 02:09:43;;;;;;;5.95;3.98;;;;;;;11.25;81.73;100453.59;1764626;81;21553;-81
2022/10/06 02:12:10;;;;;;;5.05;3.80;;;;;;;11.19;81.77;100457.20;1771777;80;21237;-81
2022/10/06 02:14:39;;;;;;;6.75;4.28;;;;;;;11.11;82.15;100462.46;1756894;80;21021;-82
2022/10/06 02:17:08;;;;;;;5.97;3.60;;;;;;;11.09;82.30;100458.30;1758718;80;21535;-82
2022/10/06 02:19:35;;;;;;;5.15;3.30;;;;;;;11.11;82.16;100457.14;1759278;80;21191;-83
2022/10/06 02:22:01;;;;;;;8.18;3.72;;;;;;;11.07;82.29;100455.78;1753355;80;21558;-81
2022/10/06 02:24:29;;;;;;;5.87;3.67;;;;;;;10.99;82.49;100449.05;1753142;80;22937;-83
2022/10/06 02:26:55;;;;;;;8.98;3.70;;;;;;;10.95;82.74;100447.69;1755939;80;20989;-81
2022/10/06 02:29:21;;;;;;;5.58;4.15;;;;;;;10.98;82.67;100449.55;1769513;79;21010;-81
2022/10/06 02:31:49;;;;;;;6.10;3.75;;;;;;;10.91;82.81;100451.64;1770596;78;21305;-80
2022/10/06 02:34:16;;;;;;;5.92;4.22;;;;;;;10.85;82.98;100457.58;1765844;80;21054;-82
2022/10/06 02:36:43;;;;;;;5.40;3.70;;;;;;;10.79;83.33;100458.52;1769145;80;22122;-81
2022/10/06 02:39:10;;;;;;;5.08;3.70;;;;;;;10.85;83.24;100460.23;1753994;80;21077;-82
2022/10/06 02:41:36;;;;;;;7.20;4.85;;;;;;;10.84;83.27;100458.08;1759344;80;21521;-82
2022/10/06 02:44:03;;;;;;;5.70;4.08;;;;;;;10.78;83.45;100467.49;1761549;80;21088;-82
2022/10/06 02:46:30;;;;;;;5.00;3.80;;;;;;;10.72;83.84;100460.13;1757916;80;21016;-80
2022/10/06 02:48:58;;;;;;;6.83;4.22;;;;;;;10.73;83.75;100453.81;1752955;81;21112;-79
2022/10/06 02:51:25;;;;;;;7.03;4.45;;;;;;;10.76;83.67;100462.83;1776986;80;21029;-80
2022/10/06 02:53:52;;;;;;;6.45;4.30;;;;;;;10.71;83.78;100465.59;1775237;80;20985;-82
2022/10/06 02:56:21;;;;;;;10.00;4.45;;;;;;;10.66;83.97;100465.20;1761562;80;21017;-79
2022/10/06 02:58:49;;;;;;;7.53;3.85;;;;;;;10.72;83.82;100465.45;1760165;80;21001;-79
2022/10/06 03:01:20;;;;;;;6.80;3.80;;;;;;;10.73;83.72;100470.27;1770530;80;21122;-79
2022/10/06 03:03:47;;;;;;;5.83;3.52;;;;;;;10.67;83.83;100466.88;1775000;80;21033;-80
2022/10/06 03:06:22;;;;;;;7.12;3.67;;;;;;;10.61;83.92;100466.48;1751279;82;20994;-83
2022/10/06 03:08:57;;;;;;;9.00;4.55;;;;;;;10.68;83.95;100476.52;1769699;80;21009;-81
2022/10/06 03:11:29;;;;;;;12.88;4.35;;;;;;;10.66;83.86;100463.37;1771957;80;21013;-81
2022/10/06 03:13:56;;;;;;;9.63;4.42;;;;;;;10.59;83.96;100462.33;1774711;80;21634;-83
2022/10/06 03:16:25;;;;;;;9.78;3.62;;;;;;;10.53;84.31;100461.60;1775159;80;21130;-84
2022/10/06 03:18:53;;;;;;;5.87;3.85;;;;;;;10.58;84.31;100457.48;1770075;80;21096;-83
2022/10/06 03:21:26;;;;;;;8.15;4.05;;;;;;;10.58;84.27;100464.63;1767257;80;21053;-83
2022/10/06 03:23:53;;;;;;;6.53;4.45;;;;;;;10.49;84.72;100462.86;1776201;79;21041;-81
2022/10/06 03:26:26;;;;;;;7.58;3.90;;;;;;;10.42;84.99;100459.48;1771567;79;21092;-81
2022/10/06 03:28:56;;;;;;;4.12;3.33;;;;;;;10.43;85.15;100458.52;1766924;80;21028;-82
2022/10/06 03:31:24;;;;;;;6.90;4.00;;;;;;;10.47;85.16;100467.48;1772441;80;21025;-81
2022/10/06 03:33:53;;;;;;;7.25;4.25;;;;;;;10.40;85.21;100464.11;1777417;80;21021;-81
2022/10/06 03:36:21;;;;;;;6.60;3.83;;;;;;;10.34;85.59;100474.50;1773013;80;21035;-81
2022/10/06 03:38:47;;;;;;;6.87;4.08;;;;;;;10.33;85.64;100468.34;1766627;80;21199;-80
2022/10/06 03:41:19;;;;;;;8.85;4.20;;;;;;;10.38;85.52;100474.05;1771877;80;22089;-81
2022/10/06 03:43:49;;;;;;;8.50;4.47;;;;;;;10.34;85.60;100476.66;1782141;78;20994;-80
2022/10/06 03:46:18;;;;;;;6.47;3.85;;;;;;;10.26;85.76;100471.70;1763295;80;20959;-79
2022/10/06 03:48:46;;;;;;;7.35;3.98;;;;;;;10.25;85.94;100470.87;1759963;81;21038;-79
2022/10/06 03:51:16;;;;;;;5.92;4.08;;;;;;;10.31;85.72;100470.31;1757182;80;21869;-80
2022/10/06 03:53:45;;;;;;;5.03;3.80;;;;;;;10.27;85.75;100472.89;1773605;78;21050;-80
2022/10/06 03:56:22;;;;;;;5.22;4.22;;;;;;;10.18;86.11;100482.59;1745895;81;21021;-81
2022/10/06 03:58:53;;;;;;;8.33;3.95;;;;;;;10.20;86.11;100478.47;1740582;81;21045;-83
2022/10/06 04:01:32;;;;;;;7.40;4.22;;;;;;;10.25;85.99;100470.87;1736623;81;21557;-81
2022/10/06 04:04:02;;;;;;;7.92;4.50;;;;;;;10.21;85.86;100476.14;1773554;80;21017;-81
2022/10/06 04:06:32;;;;;;;5.72;4.22;;;;;;;10.13;86.02;100480.86;1756440;80;21573;-77
2022/10/06 04:08:58;;;;;;;8.70;4.42;;;;;;;10.13;86.20;100476.05;1757723;80;21085;-77
2022/10/06 04:11:31;;;;;;;7.20;4.15;;;;;;;10.21;85.90;100480.13;1766369;80;20983;-78
2022/10/06 04:14:02;;;;;;;6.55;4.42;;;;;;;10.15;86.07;100477.56;1745007;80;21002;-81
2022/10/06 04:16:34;;;;;;;7.67;4.17;;;;;;;10.09;86.23;100483.47;1767695;80;21226;-80
2022/10/06 04:19:03;;;;;;;7.45;4.42;;;;;;;10.14;86.06;100484.34;1723508;81;21027;-78
2022/10/06 04:21:35;;;;;;;9.20;4.37;;;;;;;10.13;85.94;100483.52;1751940;78;21006;-81
2022/10/06 04:24:02;;;;;;;7.72;4.22;;;;;;;10.07;86.01;100489.42;1728319;81;21025;-85
2022/10/06 04:26:32;;;;;;;7.83;4.22;;;;;;;10.03;86.11;100492.85;1771382;80;21042;-80
2022/10/06 04:29:02;;;;;;;7.78;4.75;;;;;;;10.10;86.01;100485.63;1772377;80;21224;-83
2022/10/06 04:31:35;;;;;;;8.23;4.28;;;;;;;10.11;85.77;100495.27;1771975;80;21143;-84
2022/10/06 04:34:05;;;;;;;8.15;4.25;;;;;;;10.07;85.82;100492.57;1767768;79;21026;-84
2022/10/06 04:36:37;;;;;;;7.08;4.37;;;;;;;10.07;85.86;100497.38;1767973;79;21128;-81
2022/10/06 04:39:09;;;;;;;6.78;4.70;;;;;;;10.13;85.69;100499.44;1741646;81;21108;-81
2022/10/06 04:41:38;;;;;;;5.75;4.05;;;;;;;10.09;85.69;100502.05;1748565;81;21776;-82
2022/10/06 04:44:05;;;;;;;5.97;3.92;;;;;;;10.02;85.72;100496.50;1748658;80;21109;-81
2022/10/06 04:46:33;;;;;;;7.42;4.12;;;;;;;10.04;85.76;100501.17;1771921;79;21041;-80
2022/10/06 04:49:00;;;;;;;8.20;4.50;;;;;;;10.11;85.57;100504.56;1750784;81;21041;-79
2022/10/06 04:51:29;;;;;;;8.65;4.85;;;;;;;10.07;85.53;100496.05;1755633;81;21028;-81
2022/10/06 04:53:58;;;;;;;8.48;5.15;;;;;;;10.03;85.65;100498.66;1745973;81;21520;-78
2022/10/06 04:56:30;;;;;;;8.50;5.05;;;;;;;10.11;85.51;100499.26;1752170;80;20997;-78
2022/10/06 04:58:58;;;;;;;9.43;5.22;;;;;;;10.16;85.16;100498.30;1750704;80;21046;-79
2022/10/06 05:01:33;;;;;;;8.60;5.25;;;;;;;10.14;85.11;100496.29;1742738;80;21168;-81
2022/10/06 05:06:05;;;;;;;7.22;5.37;;;;;;;10.27;84.93;100501.27;1822064;77;28031;-79
2022/10/06 05:08:34;;;;;;;7.28;4.58;;;;;;;10.27;84.66;100499.44;1791234;78;21024;-81
2022/10/06 05:11:10;;;;;;;6.72;4.97;;;;;;;10.27;84.62;100503.92;1827973;78;21214;-81
2022/10/06 05:13:38;;;;;;;8.00;5.55;;;;;;;10.33;84.31;100510.83;1810298;78;21497;-80
2022/10/06 05:16:08;;;;;;;7.95;4.67;;;;;;;10.45;83.91;100512.82;1764310;79;21017;-79
2022/10/06 05:18:36;;;;;;;13.15;5.35;;;;;;;10.46;83.49;100504.35;1799381;78;20973;-80
2022/10/06 05:21:06;;;;;;;8.18;5.55;;;;;;;10.49;83.61;100508.02;1755183;81;21066;-77
2022/10/06 05:23:35;;;;;;;8.93;4.90;;;;;;;10.61;83.18;100500.20;1826069;76;21090;-78
2022/10/06 05:26:02;;;;;;;9.98;5.65;;;;;;;10.68;82.85;100497.30;1820445;77;21031;-79
2022/10/06 05:28:30;;;;;;;8.30;5.55;;;;;;;10.66;82.56;100493.10;1814071;77;21016;-77
2022/10/06 05:31:04;;;;;;;7.85;4.75;;;;;;;10.66;82.06;100497.91;1830213;76;20984;-77
2022/10/06 05:33:34;;;;;;;7.40;5.35;;;;;;;10.75;81.77;100501.51;1817918;78;21638;-78
2022/10/06 05:36:04;;;;;;;8.65;5.60;;;;;;;10.79;81.56;100495.73;1823962;78;21222;-77
2022/10/06 05:38:32;;;;;;;10.90;5.92;;;;;;;10.76;81.24;100497.87;1797454;78;21110;-79
2022/10/06 05:41:10;;;;;;;10.68;5.33;;;;;;;10.71;81.57;100509.44;1806517;77;21056;-79
2022/10/06 05:43:41;;;;;;;11.68;6.50;;;;;;;10.75;81.60;100506.32;1798553;78;21031;-77
2022/10/06 05:46:19;;;;;;;11.33;5.05;;;;;;;10.85;81.40;100500.11;1819113;78;21454;-78
2022/10/06 05:48:47;;;;;;;9.80;5.72;;;;;;;10.89;80.97;100512.93;1825438;78;21564;-79
2022/10/06 05:51:18;;;;;;;9.20;4.70;;;;;;;10.93;80.71;100509.02;1761869;80;21093;-78
2022/10/06 05:53:44;;;;;;;9.23;4.97;;;;;;;11.05;80.46;100506.95;1827212;78;21562;-79
2022/10/06 05:56:17;;;;;;;8.80;5.50;;;;;;;11.19;79.93;100511.72;1759690;81;21600;-80
2022/10/06 05:58:46;;;;;;;12.28;5.05;;;;;;;11.23;79.58;100508.77;1753315;79;21068;-80
2022/10/06 06:01:27;;;;;;;11.12;5.47;;;;;;;11.28;79.66;100514.44;1809078;78;21854;-80
2022/10/06 06:04:01;;;;;;;6.92;4.80;;;;;;;11.35;79.33;100514.17;1822180;77;21114;-79
2022/10/06 06:06:36;;;;;;;9.60;5.20;;;;;;;11.48;78.93;100511.13;1839953;78;20975;-79
2022/10/06 06:09:17;;;;;;;8.08;5.30;;;;;;;11.59;78.41;100507.71;1839320;78;21051;-79
2022/10/06 06:11:49;;;;;;;9.03;5.95;;;;;;;11.57;77.35;100524.33;1839470;76;21025;-78
2022/10/06 06:15:59;;;;;;;10.50;5.28;;;;;;;11.60;77.88;100509.87;1833384;77;21250;-77
2022/10/06 06:16:51;;;;;;;9.28;4.87;;;;;;;11.63;77.97;100512.70;1839085;78;20999;-80
2022/10/06 06:19:18;;;;;;;10.08;4.92;;;;;;;11.78;77.17;100516.47;1834511;78;21248;-79
2022/10/06 06:21:45;;;;;;;10.55;6.03;;;;;;;11.85;76.76;100515.36;1835069;78;21027;-78
2022/10/06 06:24:14;;;;;;;10.05;5.17;;;;;;;11.88;76.75;100507.03;1807033;78;21508;-78
2022/10/06 06:26:41;;;;;;;12.75;5.35;;;;;;;11.91;76.68;100518.24;1824022;76;21242;-77
2022/10/06 06:29:07;;;;;;;11.15;4.65;;;;;;;11.95;76.55;100520.92;1809842;78;21468;-79
2022/10/06 06:31:42;;;;;;;6.92;4.70;;;;;;;12.00;76.51;100522.63;1826317;76;21033;-78
2022/10/06 06:34:07;;;;;;;6.95;4.65;;;;;;;12.17;76.14;100522.72;1831943;78;20985;-78
2022/10/06 06:36:39;;;;;;;7.75;5.47;;;;;;;12.24;75.66;100525.06;1830704;78;21081;-78
2022/10/06 06:39:10;;;;;;;7.83;5.08;;;;;;;12.27;75.54;100527.42;1788476;80;21932;-79
2022/10/06 06:41:43;;;;;;;13.65;4.70;;;;;;;12.29;75.49;100519.27;1772832;79;21070;-79
2022/10/06 06:44:15;;;;;;;7.20;4.83;;;;;;;12.34;75.34;100520.47;1776713;80;21096;-79
2022/10/06 06:46:48;;;;;;;7.17;4.50;;;;;;;12.39;74.81;100522.64;1824718;77;21405;-76
2022/10/06 06:49:18;;;;;;;7.12;4.12;;;;;;;12.52;74.87;100518.20;1825761;78;21392;-78
2022/10/06 06:51:49;;;;;;;7.15;4.65;;;;;;;12.61;74.78;100519.04;1819725;78;21129;-77
2022/10/06 06:54:18;;;;;;;9.73;4.60;;;;;;;12.65;74.80;100517.23;1794441;78;21045;-78
2022/10/06 06:56:47;;;;;;;7.35;4.90;;;;;;;12.70;74.41;100516.73;1794373;80;21303;-79
2022/10/06 06:59:16;;;;;;;8.08;4.97;;;;;;;12.73;74.30;100512.42;1794421;80;21009;-78
2022/10/06 07:01:47;;;;;;;8.43;4.90;;;;;;;12.76;74.10;100515.58;1819580;78;21057;-78
2022/10/06 07:04:15;;;;;;;8.75;4.72;;;;;;;12.79;73.80;100509.92;1798755;78;21886;-77
2022/10/06 07:06:51;;;;;;;12.05;4.50;;;;;;;12.85;74.14;100512.95;1785107;79;21002;-77
2022/10/06 07:09:13;;;;;;;8.15;4.72;;;;;;;13.01;73.48;100517.46;1774206;79;20966;-77
2022/10/06 07:11:41;;;;;;;9.18;4.67;;;;;;;13.06;72.49;100509.81;1779158;80;21010;-78
2022/10/06 07:14:11;;;;;;;5.83;4.33;;;;;;;12.99;72.21;100518.95;1777010;80;21050;-77
2022/10/06 07:25:22;;;;;;;5.90;4.40;;;;;;;13.15;72.67;100504.79;1779361;80;21486;-78
2022/10/06 07:27:49;;;;;;;8.80;4.58;;;;;;;13.27;72.73;100510.63;1734828;81;21119;-78
2022/10/06 07:30:26;;;;;;;8.70;5.22;;;;;;;13.48;71.88;100505.67;1762926;80;21124;-79
2022/10/06 07:32:57;;;;;;;7.60;4.75;;;;;;;13.56;71.77;100517.66;1806791;77;21720;-78
2022/10/06 07:35:26;;;;;;;8.28;4.97;;;;;;;13.63;71.12;100511.64;1784057;80;21053;-78
2022/10/06 07:37:53;;;;;;;6.87;4.03;;;;;;;13.68;70.81;100511.98;1794985;79;21053;-79
2022/10/06 07:40:23;;;;;;;8.88;4.70;;;;;;;13.74;70.86;100515.30;1789401;80;21041;-80
2022/10/06 07:42:51;;;;;;;6.45;4.22;;;;;;;13.77;70.68;100505.59;1759052;80;21529;-81
2022/10/06 07:48:22;;;;;;;13.70;5.62;;;;;;;13.87;70.70;100506.27;1769499;80;21036;-82
2022/10/06 07:50:53;;;;;;;7.67;4.87;;;;;;;14.01;70.77;100514.58;1779708;78;21052;-82
2022/10/06 07:53:21;;;;;;;9.38;5.33;;;;;;;14.08;69.37;100514.20;1796768;78;20993;-83
2022/10/06 07:55:51;;;;;;;7.83;4.53;;;;;;;14.11;69.54;100495.98;1761618;79;21707;-80
2022/10/06 07:58:26;;;;;;;7.10;4.20;;;;;;;14.19;69.58;100504.98;1779504;78;21025;-81
2022/10/06 08:00:53;;;;;;;5.03;4.25;;;;;;;14.27;69.29;100512.97;1789460;79;21211;-80
2022/10/06 08:03:21;;;;;;;7.35;4.80;;;;;;;14.29;68.65;100502.93;1804043;79;21015;-81
2022/10/06 08:05:51;;;;;;;10.45;4.62;;;;;;;14.30;68.33;100505.44;1770366;78;20969;-83
2022/10/06 08:08:19;;;;;;;6.97;4.33;;;;;;;14.35;69.13;100499.08;1781482;80;21053;-82
2022/10/06 08:10:52;;;;;;;7.80;4.45;;;;;;;14.45;68.81;100494.02;1829468;78;20960;-82
2022/10/06 08:13:20;;;;;;;10.75;4.87;;;;;;;14.57;68.94;100497.16;1829816;78;21012;-84
2022/10/06 08:15:48;;;;;;;6.62;4.60;;;;;;;14.72;67.91;100495.41;1830375;78;20933;-83
2022/10/06 08:18:20;;;;;;;5.90;4.08;;;;;;;14.84;66.85;100499.33;1828003;78;20976;-79
2022/10/06 08:20:47;;;;;;;5.97;4.45;;;;;;;14.91;66.45;100506.98;1829682;78;21139;-80
2022/10/06 08:23:15;;;;;;;5.00;3.70;;;;;;;14.99;66.31;100492.71;1829066;78;21043;-83
2022/10/06 08:25:49;;;;;;;8.38;5.15;;;;;;;15.08;66.09;100483.59;1813200;77;21055;-77
2022/10/06 08:28:16;;;;;;;10.95;4.53;;;;;;;15.23;66.13;100480.14;1818892;76;22341;-76
2022/10/06 08:30:42;;;;;;;7.60;4.25;;;;;;;15.37;65.96;100479.33;1828802;77;21030;-77
2022/10/06 08:33:09;;;;;;;6.50;4.10;;;;;;;15.52;65.87;100472.16;1805876;77;21633;-77
2022/10/06 08:35:38;;;;;;;5.80;3.70;;;;;;;15.72;65.51;100468.94;1827085;77;21007;-77
2022/10/06 08:38:05;;;;;;;6.97;4.17;;;;;;;15.92;64.24;100471.95;1839349;76;21017;-75
2022/10/06 08:40:33;;;;;;;5.97;4.10;;;;;;;16.01;63.85;100468.66;1814810;77;21608;-78
2022/10/06 08:43:01;;;;;;;6.30;4.25;;;;;;;16.07;63.37;100471.92;1815578;77;21003;-76
2022/10/06 08:45:34;;;;;;;7.37;3.92;;;;;;;16.18;63.60;100472.80;1820249;77;21092;-77
2022/10/06 08:48:06;;;;;;;10.90;4.25;;;;;;;16.39;63.14;100465.31;1817616;76;21040;-76
2022/10/06 08:51:17;;;;;;;9.55;3.85;;;;;;;16.61;63.04;100459.98;1806026;77;21458;-75
2022/10/06 08:54:09;;;;;;;7.65;4.20;;;;;;;16.87;62.60;100460.81;1822844;78;21042;-77
2022/10/06 08:56:53;;;;;;;6.95;4.03;;;;;;;17.26;60.72;100470.23;1822025;78;21045;-78
2022/10/06 08:59:20;;;;;;;5.92;3.72;;;;;;;17.54;59.72;100481.48;1829503;77;21134;-79
2022/10/06 09:01:49;;;;;;;5.55;4.33;;;;;;;17.74;58.31;100465.00;1827790;76;21054;-78
2022/10/06 09:04:27;;;;;;;6.95;3.77;;;;;;;17.93;58.56;100459.45;1826854;76;21047;-76
2022/10/06 09:07:05;;;;;;;11.48;4.65;;;;;;;18.25;57.60;100463.83;1797397;78;21606;-79
2022/10/06 09:09:58;;;;;;;4.72;3.90;;;;;;;18.64;57.49;100462.32;1827740;78;21595;-75
2022/10/06 09:12:50;;;;;;;9.75;3.92;;;;;;;19.12;55.58;100461.36;1819009;76;20976;-76
2022/10/06 09:15:32;;;;;;;5.47;3.83;;;;;;;19.57;54.31;100450.78;1829791;76;21044;-74
2022/10/06 09:18:21;;;;;;;6.45;3.90;;;;;;;19.97;53.87;100452.89;1825971;76;21075;-77
2022/10/06 09:21:21;;;;;;;4.70;3.62;;;;;;;20.48;53.55;100455.78;1778633;80;20946;-78
2022/10/06 09:23:52;;;;;;;5.25;3.40;;;;;;;20.98;51.18;100456.73;1809306;77;21019;-80
2022/10/06 09:26:28;;;;;;;4.25;3.70;;;;;;;21.38;49.50;100462.31;1816828;76;21211;-79
2022/10/06 09:28:55;;;;;;;7.15;4.55;;;;;;;21.64;49.63;100457.22;1826801;77;21032;-78
2022/10/06 09:31:30;;;;;;;5.03;3.58;;;;;;;21.82;49.22;100456.93;1825983;76;21067;-79
2022/10/06 09:34:18;;;;;;;6.58;4.12;;;;;;;22.03;48.42;100455.13;1815728;76;20997;-76
2022/10/06 09:37:01;;;;;;;4.37;3.42;;;;;;;22.42;48.27;100454.34;1798521;79;21073;-76
2022/10/06 09:39:35;;;;;;;6.42;3.72;;;;;;;22.70;46.74;100477.30;1807523;78;21627;-75
2022/10/06 09:42:11;;;;;;;4.62;3.30;;;;;;;22.82;46.59;100468.67;1808623;78;21032;-77
2022/10/06 09:44:57;;;;;;;10.40;4.00;;;;;;;22.93;46.90;100450.27;1822244;76;21068;-76
2022/10/06 09:47:31;;;;;;;4.10;3.37;;;;;;;23.25;46.32;100448.62;1819157;76;20999;-75
2022/10/06 09:50:26;;;;;;;9.48;4.28;;;;;;;23.47;45.13;100450.75;1818720;77;21063;-77
2022/10/06 09:53:04;;;;;;;5.55;3.75;;;;;;;23.51;45.28;100455.48;1824224;78;21720;-74
2022/10/06 09:55:41;;;;;;;7.22;3.50;;;;;;;23.73;45.59;100449.45;1817032;76;21033;-74
2022/10/06 09:58:22;;;;;;;5.10;3.50;;;;;;;23.83;44.18;100460.55;1806993;78;21031;-73
2022/10/06 10:00:59;;;;;;;3.90;3.50;;;;;;;23.84;44.24;100455.97;1812237;77;21006;-73
2022/10/06 10:03:25;;;;;;;5.50;3.77;;;;;;;23.91;43.98;100464.78;1788878;78;22065;-73
2022/10/06 10:05:58;;;;;;;4.85;3.40;;;;;;;23.97;44.49;100450.28;1759013;79;22137;-74
2022/10/06 10:08:26;;;;;;;4.62;3.52;;;;;;;24.22;44.55;100446.41;1741940;80;21041;-75
2022/10/06 10:13:58;;;;;;;5.45;2.98;;;;;;;24.84;42.97;100451.11;1757301;81;21084;-77
2022/10/06 10:16:33;;;;;;;4.65;3.55;;;;;;;25.16;41.87;100451.92;1758967;79;21544;-78
2022/10/06 10:19:04;;;;;;;5.62;3.60;;;;;;;25.34;41.46;100442.70;1762816;81;21906;-79
2022/10/06 10:21:32;;;;;;;4.87;3.63;;;;;;;25.43;41.51;100437.95;1762851;81;21512;-78
2022/10/06 10:24:02;;;;;;;6.22;3.52;;;;;;;25.43;41.14;100444.75;1750927;81;21018;-78
2022/10/06 10:26:53;;;;;;;3.87;3.25;;;;;;;25.44;41.78;100436.05;1761994;79;21141;-78
2022/10/06 10:29:44;;;;;;;6.20;3.42;;;;;;;25.63;41.11;100443.39;1760342;80;21055;-77
2022/10/06 10:32:37;;;;;;;6.10;3.60;;;;;;;25.90;40.49;100440.23;1762101;80;21650;-78
2022/10/06 10:35:21;;;;;;;4.37;3.30;;;;;;;26.06;40.19;100429.02;1737735;80;21041;-78
2022/10/06 10:38:07;;;;;;;4.62;3.45;;;;;;;26.08;40.00;100434.22;1759193;81;21213;-79
2022/10/06 10:40:44;;;;;;;5.58;3.35;;;;;;;26.17;40.67;100426.41;1725329;81;21184;-78
2022/10/06 10:43:34;;;;;;;7.10;3.70;;;;;;;26.42;39.96;100422.59;1785912;79;21098;-78
2022/10/06 10:46:28;;;;;;;6.75;3.98;;;;;;;26.62;39.89;100421.20;1755252;80;21125;-77
2022/10/06 10:49:20;;;;;;;6.00;3.80;;;;;;;26.84;39.27;100449.73;1757962;80;20970;-78
2022/10/06 10:51:51;;;;;;;4.97;3.60;;;;;;;26.72;39.66;100426.73;1728487;81;21049;-78
2022/10/06 10:54:24;;;;;;;6.70;3.47;;;;;;;26.62;39.41;100426.66;1777820;80;21053;-77
2022/10/06 10:56:51;;;;;;;4.67;3.58;;;;;;;26.56;39.46;100427.11;1778271;78;21605;-78
2022/10/06 10:59:51;;;;;;;5.85;3.55;;;;;;;26.40;39.48;100422.03;1760798;80;21089;-77
2022/10/06 11:02:19;;;;;;;4.58;3.47;;;;;;;26.40;39.87;100419.84;1752646;80;21072;-77
2022/10/06 11:04:49;;;;;;;6.22;4.03;;;;;;;26.45;39.93;100419.36;1744562;81;21052;-78
2022/10/06 11:07:33;;;;;;;6.28;3.77;;;;;;;26.66;39.95;100415.52;1788272;78;21012;-77
2022/10/06 11:10:15;;;;;;;5.55;3.60;;;;;;;27.02;39.70;100416.64;1803711;77;21132;-78
2022/10/06 11:13:13;;;;;;;5.40;3.47;;;;;;;27.37;39.25;100414.42;1799816;78;22103;-79
2022/10/06 11:16:06;;;;;;;7.20;3.70;;;;;;;27.88;38.45;100402.97;1827638;78;21523;-77
2022/10/06 11:19:18;;;;;;;6.75;3.70;;;;;;;28.01;37.84;100402.50;1815375;78;21060;-74
2022/10/06 11:21:54;;;;;;;4.80;3.50;;;;;;;27.78;38.02;100399.66;1828415;78;21460;-77
2022/10/06 11:24:47;;;;;;;5.65;3.25;;;;;;;27.83;38.10;100387.37;1815325;78;21080;-74
2022/10/06 11:27:37;;;;;;;5.08;3.92;;;;;;;28.06;37.17;100394.86;1727374;81;21130;-73
2022/10/06 11:30:18;;;;;;;4.42;4.03;;;;;;;27.77;37.13;100401.54;1730481;82;21455;-74
2022/10/06 11:33:10;;;;;;;4.90;3.90;;;;;;;27.45;37.83;100401.67;1765656;81;21044;-76
2022/10/06 11:35:40;;;;;;;6.25;4.20;;;;;;;27.41;37.94;100385.53;1763474;81;21048;-74
2022/10/06 11:38:20;;;;;;;5.22;3.90;;;;;;;27.49;37.80;100400.06;1765391;79;21079;-76
2022/10/06 11:41:08;;;;;;;7.05;4.00;;;;;;;27.45;37.55;100397.58;1768163;79;21087;-74
2022/10/06 11:43:52;;;;;;;7.10;4.10;;;;;;;27.39;37.62;100386.34;1766766;79;21082;-73
2022/10/06 11:46:33;;;;;;;4.25;3.80;;;;;;;27.42;37.90;100394.82;1751070;81;21033;-74
2022/10/06 11:49:31;;;;;;;10.50;5.28;;;;;;;27.58;38.11;100390.81;1771252;78;21620;-72
2022/10/06 11:52:13;;;;;;;5.55;3.85;;;;;;;27.94;37.48;100382.80;1727486;82;21596;-74
2022/10/06 11:54:55;;;;;;;4.40;4.00;;;;;;;28.16;37.00;100383.42;1718916;81;21584;-74
2022/10/06 11:57:31;;;;;;;5.35;4.10;;;;;;;28.22;36.93;100390.53;1727812;81;21595;-75
2022/10/06 12:00:16;;;;;;;10.88;4.03;;;;;;;28.26;37.17;100385.36;1739459;81;21447;-75
2022/10/06 12:02:45;;;;;;;4.65;3.90;;;;;;;28.39;37.02;100386.17;1747640;81;21516;-75
2022/10/06 12:05:45;;;;;;;4.03;3.62;;;;;;;28.59;36.79;100385.42;1721458;81;21734;-75
2022/10/06 12:08:11;;;;;;;7.60;3.70;;;;;;;28.83;36.72;100387.05;1685092;82;21021;-75